Time;durP1;ratioP1;P1;durP2;ratioP2;P2;SDS_P1;SDS_P2;PMS_P1;PMS_P2;Temp;Humidity;BMP_temperature;BMP_pressure;BME280_temperature;BME280_humidity;BME280_pressure;Samples;Min_cycle;Max_cycle;Signal;HPM_P1;HPM_P2
2021/04/19 00:00:19;;;;;;;21.05;14.18;;;;;;;9.98;61.77;100016.69;4941390;28;20039;-71
2021/04/19 00:02:45;;;;;;;18.95;12.77;;;;;;;9.94;61.84;100009.00;4951542;28;20037;-71
2021/04/19 00:05:13;;;;;;;24.45;14.60;;;;;;;9.89;62.57;100017.09;4950278;28;20113;-70
2021/04/19 00:07:39;;;;;;;20.92;13.88;;;;;;;9.86;62.99;100011.97;4957160;28;20495;-70
2021/04/19 00:10:06;;;;;;;30.98;15.85;;;;;;;9.87;62.41;100016.31;4970418;28;20039;-71
2021/04/19 00:12:32;;;;;;;23.10;15.00;;;;;;;9.86;62.78;100015.44;4971437;28;20031;-70
2021/04/19 00:14:57;;;;;;;36.15;15.85;;;;;;;9.79;63.32;100013.97;4970722;28;20093;-70
2021/04/19 00:17:23;;;;;;;20.23;15.27;;;;;;;9.79;63.10;100021.03;4963061;28;20035;-70
2021/04/19 00:19:48;;;;;;;24.25;12.68;;;;;;;9.77;62.71;100012.34;4967689;28;20031;-70
2021/04/19 00:22:13;;;;;;;26.55;15.70;;;;;;;9.76;63.11;100016.75;4971346;28;20462;-70
2021/04/19 00:24:39;;;;;;;23.23;14.88;;;;;;;9.74;63.60;100015.09;4971129;28;20030;-70
2021/04/19 00:27:04;;;;;;;24.00;17.10;;;;;;;9.71;63.63;100020.50;4971204;28;20077;-71
2021/04/19 00:29:30;;;;;;;27.52;16.90;;;;;;;9.67;63.92;100012.75;4971071;28;20558;-70
2021/04/19 00:31:55;;;;;;;22.27;14.43;;;;;;;9.64;64.11;100015.47;4966446;28;20772;-70
2021/04/19 00:34:20;;;;;;;28.08;18.02;;;;;;;9.63;63.84;100012.94;4958009;28;20050;-70
2021/04/19 00:36:46;;;;;;;27.25;17.02;;;;;;;9.62;63.87;100013.84;4932748;29;20028;-72
2021/04/19 00:39:11;;;;;;;24.77;15.77;;;;;;;9.60;64.26;100019.19;4951257;28;20050;-71
2021/04/19 00:41:36;;;;;;;31.73;19.15;;;;;;;9.56;64.03;100014.97;4952114;28;20494;-71
2021/04/19 00:44:02;;;;;;;29.27;17.80;;;;;;;9.51;64.37;100006.41;4951263;28;20058;-72
2021/04/19 00:46:28;;;;;;;31.50;18.27;;;;;;;9.49;64.04;100015.28;4950482;28;20118;-70
2021/04/19 00:48:53;;;;;;;27.00;16.38;;;;;;;9.49;64.32;100010.88;4951091;28;20061;-71
2021/04/19 00:51:18;;;;;;;23.58;15.55;;;;;;;9.48;64.24;100014.44;4951553;28;20046;-71
2021/04/19 00:53:44;;;;;;;31.98;19.38;;;;;;;9.47;64.53;100010.06;4951576;28;20450;-70
2021/04/19 00:56:10;;;;;;;28.20;16.85;;;;;;;9.34;64.85;100024.66;4951073;28;20119;-71
2021/04/19 00:58:37;;;;;;;32.92;17.77;;;;;;;9.29;64.74;100016.09;4949319;28;20066;-70
2021/04/19 01:01:06;;;;;;;24.00;17.23;;;;;;;9.26;64.93;100008.34;4937677;28;20474;-71
2021/04/19 01:03:32;;;;;;;27.40;19.13;;;;;;;9.21;65.17;100013.78;4956834;28;20050;-71
2021/04/19 01:05:57;;;;;;;34.10;21.33;;;;;;;9.19;65.27;100015.59;4950909;28;20082;-71
2021/04/19 01:08:23;;;;;;;29.45;18.88;;;;;;;9.18;64.97;100009.50;4951169;28;20122;-71
2021/04/19 01:10:48;;;;;;;28.58;18.30;;;;;;;9.19;65.53;100007.72;4951604;28;20126;-71
2021/04/19 01:13:14;;;;;;;31.23;18.45;;;;;;;9.22;64.59;100003.16;4951123;28;20039;-71
2021/04/19 01:15:39;;;;;;;28.67;18.95;;;;;;;9.22;64.73;100005.81;4950639;28;20086;-70
2021/04/19 01:18:06;;;;;;;29.05;20.33;;;;;;;9.17;65.25;100002.50;4951062;28;20460;-70
2021/04/19 01:20:36;;;;;;;33.28;19.48;;;;;;;9.14;65.02;100001.78;4951136;28;20039;-70
2021/04/19 01:23:02;;;;;;;33.03;21.15;;;;;;;9.10;65.88;100000.19;4951111;28;20514;-71
2021/04/19 01:25:29;;;;;;;30.55;19.30;;;;;;;9.07;65.75;99998.53;4951185;28;20039;-71
2021/04/19 01:27:55;;;;;;;34.10;21.65;;;;;;;9.07;65.27;100000.31;4950947;28;20118;-71
2021/04/19 01:30:25;;;;;;;31.20;20.85;;;;;;;9.02;65.60;99993.44;4934415;29;20047;-71
2021/04/19 01:32:51;;;;;;;30.80;20.48;;;;;;;8.96;65.55;99991.06;4951910;28;20035;-70
2021/04/19 01:35:17;;;;;;;29.38;18.73;;;;;;;8.97;66.21;99994.56;4951554;28;20065;-70
2021/04/19 01:37:43;;;;;;;30.73;22.02;;;;;;;8.98;65.80;99989.25;4952211;28;20042;-70
2021/04/19 01:40:11;;;;;;;29.60;21.63;;;;;;;8.94;65.75;99985.00;4968442;28;20043;-70
2021/04/19 01:42:37;;;;;;;28.17;19.45;;;;;;;8.91;66.24;99984.25;4970132;28;20038;-70
2021/04/19 01:45:04;;;;;;;33.28;22.98;;;;;;;8.91;66.20;99984.25;4939503;28;20043;-71
2021/04/19 01:47:29;;;;;;;30.90;21.85;;;;;;;8.90;66.09;99977.31;4950213;28;20168;-70
2021/04/19 01:49:55;;;;;;;37.65;23.23;;;;;;;8.86;65.95;99988.84;4950683;28;20503;-70
2021/04/19 01:52:20;;;;;;;29.77;21.25;;;;;;;8.82;66.18;99981.09;4951235;28;20043;-70
2021/04/19 01:54:45;;;;;;;27.60;21.02;;;;;;;8.81;66.43;99978.50;4933648;28;20114;-70
2021/04/19 01:57:11;;;;;;;22.08;19.08;;;;;;;8.79;66.25;99975.97;4952310;28;20135;-70
2021/04/19 01:59:37;;;;;;;31.35;20.08;;;;;;;8.76;66.30;99976.09;4935885;29;20480;-70
2021/04/19 02:02:10;;;;;;;31.67;21.95;;;;;;;8.72;66.65;99978.88;4937440;28;20454;-70
2021/04/19 02:05:14;;;;;;;31.95;19.92;;;;;;;8.68;66.52;99980.75;4935183;29;20569;-69
2021/04/19 02:08:15;;;;;;;32.35;22.35;;;;;;;8.66;66.39;99974.69;4934688;29;20126;-70
2021/04/19 02:10:49;;;;;;;30.98;22.50;;;;;;;8.63;66.49;99980.06;4857312;29;20094;-71
2021/04/19 02:13:28;;;;;;;39.65;24.13;;;;;;;8.58;67.08;99980.25;4923860;29;20032;-70
2021/04/19 02:16:11;;;;;;;31.33;22.67;;;;;;;8.60;67.08;99986.31;4934430;29;20504;-70
2021/04/19 02:18:58;;;;;;;29.48;20.60;;;;;;;8.60;66.42;99981.06;4935166;29;20035;-71
2021/04/19 02:21:31;;;;;;;30.73;22.83;;;;;;;8.67;66.45;99986.09;4935702;29;20071;-71
2021/04/19 02:23:59;;;;;;;31.75;22.80;;;;;;;8.60;66.26;99980.19;4935062;29;20059;-71
2021/04/19 02:26:32;;;;;;;31.90;22.40;;;;;;;8.65;66.11;99982.66;4934698;29;20040;-71
2021/04/19 02:29:14;;;;;;;27.77;20.70;;;;;;;8.65;66.28;99988.75;4935930;28;20099;-71
2021/04/19 02:31:43;;;;;;;42.42;25.75;;;;;;;8.65;66.22;99983.50;4962952;28;20069;-71
2021/04/19 02:34:12;;;;;;;32.28;22.88;;;;;;;8.58;66.74;99982.88;4965060;28;20513;-70
2021/04/19 02:36:47;;;;;;;41.72;26.00;;;;;;;8.54;66.59;99988.31;4955150;28;20035;-70
2021/04/19 02:39:15;;;;;;;28.67;21.25;;;;;;;8.47;67.17;99979.81;4953928;28;20161;-70
2021/04/19 02:41:42;;;;;;;34.08;23.45;;;;;;;8.49;67.08;99982.38;4936876;28;20059;-71
2021/04/19 02:44:09;;;;;;;42.42;23.02;;;;;;;8.45;67.01;99981.63;4956866;28;20419;-70
2021/04/19 02:46:36;;;;;;;36.90;24.25;;;;;;;8.40;66.95;99977.47;4954055;28;20038;-70
2021/04/19 02:49:04;;;;;;;32.22;23.33;;;;;;;8.42;67.12;99987.00;4960473;28;20055;-71
2021/04/19 02:51:31;;;;;;;31.33;21.38;;;;;;;8.43;67.31;99982.59;4961441;28;20043;-71
2021/04/19 02:53:57;;;;;;;36.35;23.42;;;;;;;8.43;67.38;99974.72;4954141;28;20062;-71
2021/04/19 02:56:23;;;;;;;26.17;21.48;;;;;;;8.42;67.07;99970.38;4973275;28;20030;-71
2021/04/19 02:58:58;;;;;;;35.28;22.42;;;;;;;8.44;67.38;99969.44;4976576;28;20501;-71
2021/04/19 03:01:29;;;;;;;36.63;23.90;;;;;;;8.44;66.99;99963.28;4965829;28;20057;-71
2021/04/19 03:03:58;;;;;;;38.47;25.98;;;;;;;8.40;67.56;99964.34;4964378;28;20090;-71
2021/04/19 03:06:26;;;;;;;35.92;25.00;;;;;;;8.37;67.45;99960.03;4966741;28;20538;-71
2021/04/19 03:08:56;;;;;;;37.85;24.25;;;;;;;8.34;67.48;99968.00;4972439;28;20380;-71
2021/04/19 03:11:37;;;;;;;39.67;25.80;;;;;;;8.35;67.75;99970.56;4973010;28;20089;-71
2021/04/19 03:14:06;;;;;;;37.10;25.58;;;;;;;8.36;67.94;99968.81;4972392;28;20042;-71
2021/04/19 03:16:34;;;;;;;33.53;24.05;;;;;;;8.37;67.69;99968.75;4955107;28;20039;-71
2021/04/19 03:19:02;;;;;;;38.92;25.83;;;;;;;8.37;67.23;99960.88;4962108;28;20046;-71
2021/04/19 03:21:29;;;;;;;33.92;24.95;;;;;;;8.37;67.70;99966.13;4952869;28;20035;-70
2021/04/19 03:23:58;;;;;;;31.48;22.77;;;;;;;8.37;67.63;99960.88;4969838;28;20062;-70
2021/04/19 03:26:28;;;;;;;37.90;23.95;;;;;;;8.40;67.06;99966.97;4972060;28;20514;-71
2021/04/19 03:28:54;;;;;;;37.13;23.88;;;;;;;8.35;66.98;99959.22;4972389;28;20043;-71
2021/04/19 03:31:30;;;;;;;30.88;22.65;;;;;;;8.32;67.53;99956.72;4972191;28;20114;-71
2021/04/19 03:33:59;;;;;;;36.90;24.67;;;;;;;8.29;67.41;99955.03;4971775;28;20059;-71
2021/04/19 03:36:25;;;;;;;36.08;25.88;;;;;;;8.28;67.05;99957.72;4949160;28;20403;-70
2021/04/19 03:38:52;;;;;;;38.30;26.50;;;;;;;8.22;66.97;99950.06;4952911;28;20039;-70
2021/04/19 03:41:18;;;;;;;35.85;24.75;;;;;;;8.18;67.40;99955.44;4952650;28;20032;-70
2021/04/19 03:43:57;;;;;;;36.05;24.85;;;;;;;8.18;67.61;99951.97;4952467;28;20035;-70
2021/04/19 03:46:24;;;;;;;40.92;25.52;;;;;;;8.05;67.62;99950.69;4952471;28;20042;-70
2021/04/19 03:48:55;;;;;;;38.22;26.63;;;;;;;8.04;67.80;99955.06;4952467;28;20114;-70
2021/04/19 03:51:21;;;;;;;38.30;26.95;;;;;;;7.94;67.93;99954.53;4952493;28;20039;-70
2021/04/19 03:53:49;;;;;;;41.72;26.45;;;;;;;8.00;67.87;99953.50;4952480;28;20036;-70
2021/04/19 03:56:17;;;;;;;37.35;25.20;;;;;;;8.05;67.79;99958.56;4952266;28;20027;-70
2021/04/19 03:58:44;;;;;;;40.55;25.75;;;;;;;8.06;67.68;99953.25;4952006;28;20035;-71
2021/04/19 04:01:13;;;;;;;33.65;25.85;;;;;;;8.07;68.15;99951.47;4952388;28;20035;-70
2021/04/19 04:03:41;;;;;;;38.75;25.42;;;;;;;8.06;67.80;99952.41;4952189;28;20102;-70
2021/04/19 04:06:09;;;;;;;42.15;26.33;;;;;;;8.04;68.01;99948.97;4948699;28;20039;-71
2021/04/19 04:08:35;;;;;;;38.17;27.38;;;;;;;8.03;68.23;99949.91;4949100;28;20039;-70
2021/04/19 04:11:01;;;;;;;35.80;25.08;;;;;;;8.00;68.44;99943.00;4952120;28;20054;-71
2021/04/19 04:13:29;;;;;;;44.90;27.02;;;;;;;7.92;68.56;99945.88;4952121;28;20039;-71
2021/04/19 04:15:59;;;;;;;42.80;30.80;;;;;;;7.84;69.48;99945.28;4951783;28;20054;-71
2021/04/19 04:18:24;;;;;;;53.15;31.70;;;;;;;7.76;69.46;99942.09;4951734;28;20086;-71
2021/04/19 04:20:49;;;;;;;49.30;30.52;;;;;;;7.69;69.72;99944.06;4951738;28;20042;-71
2021/04/19 04:23:16;;;;;;;43.35;30.35;;;;;;;7.61;69.64;99951.34;4951999;28;20031;-71
2021/04/19 04:25:42;;;;;;;40.42;30.70;;;;;;;7.56;69.91;99950.66;4951940;28;20047;-71
2021/04/19 04:28:08;;;;;;;50.55;34.13;;;;;;;7.51;70.22;99955.22;4951774;28;20023;-70
2021/04/19 04:30:35;;;;;;;42.97;29.13;;;;;;;7.50;70.23;99951.69;4934285;28;20031;-70
2021/04/19 04:33:04;;;;;;;47.92;35.22;;;;;;;7.50;69.93;99954.31;4938630;28;20042;-70
2021/04/19 04:35:30;;;;;;;46.97;30.20;;;;;;;7.41;70.34;99952.03;4962302;28;20443;-70
2021/04/19 04:37:57;;;;;;;43.83;31.17;;;;;;;7.38;70.31;99952.13;4970706;28;20583;-69
2021/04/19 04:40:24;;;;;;;46.67;30.35;;;;;;;7.36;70.50;99950.44;4971327;28;20057;-71
2021/04/19 04:42:55;;;;;;;49.05;32.92;;;;;;;7.35;70.67;99954.00;4970728;28;20074;-70
2021/04/19 04:45:21;;;;;;;47.10;32.53;;;;;;;7.37;70.53;99953.03;4970795;28;20054;-71
2021/04/19 04:48:11;;;;;;;53.15;34.83;;;;;;;7.34;70.74;99950.53;4970807;28;20121;-70
2021/04/19 04:50:43;;;;;;;62.17;31.50;;;;;;;7.30;70.89;99955.00;4970393;28;20065;-70
2021/04/19 04:53:18;;;;;;;40.55;30.45;;;;;;;7.26;71.00;99957.75;4970736;28;20089;-70
2021/04/19 04:55:47;;;;;;;44.55;30.33;;;;;;;7.26;71.15;99957.75;4970676;28;20031;-70
2021/04/19 04:58:14;;;;;;;47.67;32.60;;;;;;;7.23;70.99;99960.50;4970520;28;20046;-70
2021/04/19 05:00:40;;;;;;;43.90;31.15;;;;;;;7.21;70.98;99964.94;4970255;28;20374;-70
2021/04/19 05:03:09;;;;;;;55.30;38.00;;;;;;;7.17;71.34;99965.97;4970592;28;20031;-70
2021/04/19 05:05:35;;;;;;;50.80;35.00;;;;;;;7.12;71.45;99966.09;4969901;28;20047;-70
2021/04/19 05:08:01;;;;;;;43.42;31.33;;;;;;;7.09;71.37;99961.81;4953505;28;20074;-70
2021/04/19 05:10:27;;;;;;;58.83;33.45;;;;;;;7.05;71.44;99956.72;4951052;28;20055;-70
2021/04/19 05:12:53;;;;;;;54.45;34.75;;;;;;;7.05;71.42;99959.34;4951902;28;20067;-70
2021/04/19 05:15:18;;;;;;;49.13;34.15;;;;;;;7.03;71.52;99971.63;4933439;28;20189;-69
2021/04/19 05:17:45;;;;;;;54.90;37.60;;;;;;;7.01;71.69;99971.66;4951196;28;20054;-70
2021/04/19 05:20:12;;;;;;;48.00;34.97;;;;;;;7.02;71.73;99973.41;4951140;28;20039;-70
2021/04/19 05:22:38;;;;;;;53.92;35.55;;;;;;;7.03;71.43;99977.72;4951212;28;20068;-70
2021/04/19 05:25:05;;;;;;;59.53;40.22;;;;;;;7.04;71.65;99976.84;4951070;28;20125;-70
2021/04/19 05:27:31;;;;;;;52.35;36.30;;;;;;;7.09;71.55;99980.16;4951841;28;20048;-70
2021/04/19 05:29:57;;;;;;;62.40;36.70;;;;;;;7.14;71.51;99982.66;4962154;28;20050;-70
2021/04/19 05:32:23;;;;;;;69.40;44.58;;;;;;;7.19;71.20;99979.88;4955171;28;20031;-70
2021/04/19 05:34:51;;;;;;;59.20;37.92;;;;;;;7.20;71.04;99981.59;4963877;28;20027;-70
2021/04/19 05:37:17;;;;;;;51.15;35.10;;;;;;;7.26;71.09;99990.13;4954418;28;20162;-71
2021/04/19 05:39:44;;;;;;;52.60;36.58;;;;;;;7.32;70.38;99989.91;4954716;28;20031;-70
2021/04/19 05:42:14;;;;;;;60.15;37.88;;;;;;;7.33;70.12;99982.88;4954755;28;20108;-70
2021/04/19 05:44:40;;;;;;;61.30;39.75;;;;;;;7.29;70.16;99981.28;4954543;28;20031;-70
2021/04/19 05:47:07;;;;;;;56.45;36.50;;;;;;;7.24;70.48;99988.44;4954694;28;20037;-70
2021/04/19 05:49:32;;;;;;;65.70;38.30;;;;;;;7.27;70.06;99983.09;4954449;28;20046;-71
2021/04/19 05:52:00;;;;;;;61.47;39.17;;;;;;;7.31;70.10;99982.09;4955047;28;20071;-70
2021/04/19 05:54:26;;;;;;;57.30;39.13;;;;;;;7.35;69.94;99986.31;4955210;28;20035;-70
2021/04/19 05:57:09;;;;;;;62.40;38.03;;;;;;;7.42;69.68;99982.59;4958047;28;20058;-70
2021/04/19 05:59:47;;;;;;;61.78;38.50;;;;;;;7.45;69.52;99977.22;4968999;28;20031;-70
2021/04/19 06:02:21;;;;;;;50.75;36.72;;;;;;;7.47;69.78;99988.53;4970682;28;20043;-70
2021/04/19 06:05:05;;;;;;;57.38;37.63;;;;;;;7.50;69.33;99991.06;4951787;28;20074;-70
2021/04/19 06:08:05;;;;;;;59.63;40.40;;;;;;;7.53;69.32;99983.09;4954786;28;20065;-70
2021/04/19 06:10:37;;;;;;;61.67;37.05;;;;;;;7.51;68.85;99984.06;4954795;28;20403;-70
2021/04/19 06:13:03;;;;;;;55.63;39.22;;;;;;;7.56;68.79;99994.41;4952242;28;20464;-70
2021/04/19 06:15:29;;;;;;;51.53;37.65;;;;;;;7.55;68.79;99988.28;4965834;28;20499;-71
2021/04/19 06:17:56;;;;;;;51.72;35.15;;;;;;;7.53;68.53;99993.59;4974016;28;20118;-70
2021/04/19 06:20:23;;;;;;;69.03;39.38;;;;;;;7.53;68.50;99990.97;4973874;28;20479;-70
2021/04/19 06:22:53;;;;;;;59.65;38.17;;;;;;;7.52;68.71;99993.63;4973919;28;20558;-70
2021/04/19 06:25:19;;;;;;;59.60;40.30;;;;;;;7.53;68.74;99997.97;4956546;28;20042;-70
2021/04/19 06:27:45;;;;;;;61.10;38.58;;;;;;;7.49;68.49;99999.84;4953492;28;20115;-70
2021/04/19 06:30:13;;;;;;;62.58;42.08;;;;;;;7.50;68.41;100001.53;4936604;28;20163;-71
2021/04/19 06:32:40;;;;;;;54.08;37.78;;;;;;;7.47;68.74;99995.56;4953547;28;20039;-70
2021/04/19 06:35:06;;;;;;;57.97;36.47;;;;;;;7.49;68.03;100004.25;4963900;28;20023;-69
2021/04/19 06:37:32;;;;;;;60.00;40.20;;;;;;;7.46;68.29;99992.09;4963953;28;20046;-71
2021/04/19 06:39:58;;;;;;;72.45;38.20;;;;;;;7.50;68.51;99993.69;4953994;28;20039;-70
2021/04/19 06:42:23;;;;;;;56.97;37.75;;;;;;;7.55;68.21;100000.53;4954189;28;20380;-70
2021/04/19 06:44:49;;;;;;;54.30;38.83;;;;;;;7.55;68.16;99996.16;4953661;28;20043;-70
2021/04/19 06:47:14;;;;;;;51.83;36.30;;;;;;;7.65;68.17;99991.44;4952985;28;20035;-71
2021/04/19 06:49:40;;;;;;;62.90;37.40;;;;;;;7.72;67.86;99985.09;4954447;28;20044;-70
2021/04/19 06:52:06;;;;;;;55.40;35.92;;;;;;;7.77;67.65;99992.81;4954743;28;20035;-71
2021/04/19 06:54:31;;;;;;;58.40;38.88;;;;;;;7.71;68.25;99993.88;4953627;28;20027;-71
2021/04/19 06:56:58;;;;;;;65.90;39.10;;;;;;;7.65;68.06;99988.81;4953997;28;20426;-71
2021/04/19 06:59:24;;;;;;;62.13;38.95;;;;;;;7.60;68.20;99993.38;4955656;28;20054;-71
2021/04/19 07:01:52;;;;;;;66.22;41.13;;;;;;;7.67;68.19;99987.88;4954944;28;20039;-72
2021/04/19 07:04:26;;;;;;;63.60;42.63;;;;;;;7.79;67.61;99980.50;4957161;28;20058;-70
2021/04/19 07:06:52;;;;;;;76.28;45.60;;;;;;;7.81;67.96;99992.66;4946293;28;20031;-71
2021/04/19 07:09:28;;;;;;;62.45;39.58;;;;;;;7.80;67.59;99990.94;4976483;28;20128;-71
2021/04/19 07:12:08;;;;;;;60.60;37.92;;;;;;;7.87;67.52;99988.94;4962168;28;20035;-71
2021/04/19 07:14:36;;;;;;;73.65;44.22;;;;;;;7.95;67.27;99985.16;4953847;28;20027;-70
2021/04/19 07:17:07;;;;;;;66.65;42.03;;;;;;;8.02;67.11;99988.41;4953708;28;20406;-70
2021/04/19 07:19:33;;;;;;;58.28;40.35;;;;;;;8.11;66.66;99976.72;4959552;28;20027;-71
2021/04/19 07:21:59;;;;;;;61.08;42.05;;;;;;;8.16;66.64;99978.25;4956038;28;20119;-71
2021/04/19 07:24:27;;;;;;;60.67;39.85;;;;;;;8.37;65.88;99978.41;4955288;28;20407;-70
2021/04/19 07:26:55;;;;;;;63.42;40.45;;;;;;;8.47;65.65;99979.81;4955439;28;20122;-71
2021/04/19 07:29:20;;;;;;;60.58;37.22;;;;;;;8.59;65.13;99987.22;4960415;28;20094;-71
2021/04/19 07:31:51;;;;;;;63.85;39.30;;;;;;;8.87;64.16;99977.44;4951408;28;20055;-70
2021/04/19 07:34:22;;;;;;;70.28;45.97;;;;;;;9.00;63.62;99976.88;4942969;28;20038;-71
2021/04/19 07:36:57;;;;;;;58.08;39.05;;;;;;;9.01;63.58;99972.50;4944738;28;20122;-72
2021/04/19 07:39:23;;;;;;;;;;;;;;;9.10;62.80;99971.25;4941910;28;20122;-69
2021/04/19 07:41:50;;;;;;;66.53;42.28;;;;;;;9.10;63.20;99969.47;4933354;29;20013;-71
2021/04/19 07:44:33;;;;;;;57.00;40.25;;;;;;;9.11;63.16;99968.56;4916669;29;20043;-71
2021/04/19 07:47:30;;;;;;;64.40;38.45;;;;;;;9.02;63.72;99968.94;4933449;29;20420;-71
2021/04/19 07:50:14;;;;;;;69.25;43.33;;;;;;;8.84;63.89;99967.03;4933866;29;20496;-71
2021/04/19 07:53:08;;;;;;;66.95;42.15;;;;;;;8.77;64.45;99964.63;4933498;29;20035;-70
2021/04/19 07:55:34;;;;;;;59.42;39.42;;;;;;;8.69;63.81;99973.72;4932232;29;20036;-70
2021/04/19 07:58:01;;;;;;;55.50;37.05;;;;;;;8.78;63.61;99968.97;4933022;29;20035;-68
2021/04/19 08:00:32;;;;;;;58.50;38.08;;;;;;;8.84;63.94;99961.78;4933726;29;20035;-70
2021/04/19 08:03:18;;;;;;;55.50;37.33;;;;;;;8.88;63.15;99964.19;4933689;28;20653;-69
2021/04/19 08:05:51;;;;;;;58.75;36.92;;;;;;;8.98;63.42;99962.06;4932905;29;20043;-68
2021/04/19 08:08:34;;;;;;;61.90;40.83;;;;;;;8.98;63.42;99962.06;4933106;29;20039;-67
2021/04/19 08:11:06;;;;;;;61.50;38.22;;;;;;;8.98;63.48;99962.06;4935066;29;20036;-67
2021/04/19 08:13:32;;;;;;;59.60;37.22;;;;;;;8.81;63.86;99963.59;4945179;28;20506;-68
2021/04/19 08:16:21;;;;;;;55.42;39.15;;;;;;;9.01;63.64;99962.81;4954694;28;20121;-69
2021/04/19 08:18:47;;;;;;;59.50;38.25;;;;;;;9.11;62.63;99960.69;4959118;28;20122;-67
2021/04/19 08:21:13;;;;;;;83.50;42.40;;;;;;;9.23;62.65;99956.69;4954983;28;20117;-67
2021/04/19 08:23:44;;;;;;;75.53;39.08;;;;;;;9.34;62.52;99956.25;4962974;28;20463;-67
2021/04/19 08:26:10;;;;;;;58.25;39.08;;;;;;;9.57;61.88;99960.53;4965803;28;20727;-68
2021/04/19 08:28:43;;;;;;;80.53;39.20;;;;;;;9.79;61.64;99963.09;4966206;28;20085;-69
2021/04/19 08:31:09;;;;;;;61.53;36.80;;;;;;;9.86;60.32;99959.28;4966420;28;20047;-68
2021/04/19 08:33:36;;;;;;;59.00;37.33;;;;;;;9.80;60.37;99963.06;4966182;28;20117;-53
2021/04/19 08:36:01;;;;;;;54.92;34.45;;;;;;;9.87;59.85;99961.03;4953392;28;20054;-53
2021/04/19 08:38:29;;;;;;;63.88;36.00;;;;;;;10.01;59.96;99963.88;4947992;28;20039;-54
2021/04/19 08:40:55;;;;;;;54.58;37.60;;;;;;;9.94;59.91;99959.81;4948641;28;20035;-51
2021/04/19 08:43:28;;;;;;;59.33;37.00;;;;;;;9.96;60.28;99962.38;4948797;28;20142;-54
2021/04/19 08:45:54;;;;;;;54.20;36.47;;;;;;;9.86;59.79;99954.88;4955011;28;20498;-51
2021/04/19 08:48:19;;;;;;;55.58;37.72;;;;;;;9.54;61.28;99956.25;4953775;28;20090;-56
2021/04/19 08:50:47;;;;;;;56.28;35.17;;;;;;;9.46;61.63;99968.91;4946525;28;20120;-50
2021/04/19 08:53:15;;;;;;;64.28;40.08;;;;;;;9.56;61.64;99964.94;4946734;28;20050;-72
2021/04/19 08:55:42;;;;;;;58.90;40.00;;;;;;;9.59;62.97;99963.97;4946060;28;20035;-72
2021/04/19 08:58:12;;;;;;;49.58;34.22;;;;;;;9.67;62.71;99959.22;4945835;28;20043;-71
2021/04/19 09:00:40;;;;;;;51.10;33.15;;;;;;;9.68;63.11;99956.53;4928412;28;20039;-71
2021/04/19 09:03:07;;;;;;;50.03;35.40;;;;;;;9.80;63.48;99956.94;4946645;28;20027;-71
2021/04/19 09:05:33;;;;;;;54.38;37.55;;;;;;;9.82;62.29;99960.34;4945241;28;20039;-72
2021/04/19 09:08:04;;;;;;;51.13;36.22;;;;;;;9.88;62.11;99955.66;4946967;28;20038;-73
2021/04/19 09:10:49;;;;;;;53.13;33.65;;;;;;;10.04;61.86;99958.50;4945878;28;20054;-70
2021/04/19 09:13:31;;;;;;;57.67;39.22;;;;;;;10.03;61.91;99954.13;4946411;28;20047;-72
2021/04/19 09:16:17;;;;;;;53.95;35.65;;;;;;;10.06;61.27;99958.41;4945890;28;20063;-73
2021/04/19 09:18:52;;;;;;;61.13;36.70;;;;;;;10.03;61.28;99974.38;4936296;28;20047;-71
2021/04/19 09:21:50;;;;;;;78.13;41.00;;;;;;;10.27;64.24;99961.88;4927082;29;20039;-71
2021/04/19 09:24:17;;;;;;;77.78;43.70;;;;;;;10.24;62.07;99968.16;4933440;28;20042;-71
2021/04/19 09:26:58;;;;;;;110.88;50.50;;;;;;;10.32;63.94;99965.19;4946014;28;20495;-69
2021/04/19 09:29:30;;;;;;;80.30;42.63;;;;;;;10.37;62.67;99968.47;4935878;28;20050;-70
2021/04/19 09:31:55;;;;;;;66.93;42.70;;;;;;;10.40;61.07;99972.75;4957047;28;20046;-69
2021/04/19 09:34:42;;;;;;;81.93;43.72;;;;;;;10.42;61.48;99963.84;4953017;28;20462;-70
2021/04/19 09:37:09;;;;;;;57.45;38.30;;;;;;;10.36;61.19;99961.50;4955444;28;20043;-70
2021/04/19 09:39:57;;;;;;;62.97;38.67;;;;;;;10.37;60.74;99965.84;4959806;28;20038;-69
2021/04/19 09:43:02;;;;;;;58.88;37.22;;;;;;;10.50;60.39;99958.22;4966786;28;20126;-69
2021/04/19 09:45:48;;;;;;;67.57;37.92;;;;;;;10.71;59.27;99959.00;4966308;28;20130;-69
2021/04/19 09:48:25;;;;;;;63.47;38.47;;;;;;;10.93;58.48;99961.50;4964217;28;20050;-69
2021/04/19 09:50:52;;;;;;;52.30;35.95;;;;;;;11.26;57.10;99958.97;4964726;28;20046;-69
2021/04/19 09:53:18;;;;;;;52.65;37.58;;;;;;;11.56;56.91;99958.38;4964556;28;20038;-70
2021/04/19 09:55:43;;;;;;;49.25;36.05;;;;;;;11.66;56.73;99953.50;4963966;28;20537;-69
2021/04/19 09:58:09;;;;;;;52.78;34.10;;;;;;;11.99;55.53;99953.59;4950209;28;20036;-71
2021/04/19 10:00:34;;;;;;;58.78;36.78;;;;;;;11.98;55.32;99954.50;4945188;28;20035;-71
2021/04/19 10:03:01;;;;;;;56.20;38.63;;;;;;;11.74;55.16;99943.38;4933500;28;20036;-70
2021/04/19 10:05:26;;;;;;;55.20;37.30;;;;;;;11.76;55.54;99949.44;4926333;29;20074;-69
2021/04/19 10:07:53;;;;;;;54.28;36.80;;;;;;;12.00;54.51;99944.72;4908541;29;20071;-70
2021/04/19 10:10:19;;;;;;;56.53;35.92;;;;;;;12.80;52.65;99946.53;4926017;29;20051;-70
2021/04/19 10:12:49;;;;;;;48.75;34.65;;;;;;;12.85;52.09;99951.56;4925070;29;20035;-71
2021/04/19 10:15:22;;;;;;;58.40;39.25;;;;;;;12.64;52.20;99950.97;4939427;28;20059;-69
2021/04/19 10:17:49;;;;;;;48.13;34.92;;;;;;;12.48;53.07;99948.31;4915327;29;20067;-69
2021/04/19 10:20:26;;;;;;;49.33;34.65;;;;;;;12.66;53.08;99941.16;4934006;29;20087;-71
2021/04/19 10:23:06;;;;;;;49.33;36.50;;;;;;;12.72;52.47;99942.59;4946574;28;20126;-71
2021/04/19 10:25:45;;;;;;;44.55;32.00;;;;;;;12.77;52.24;99941.41;4963166;28;20042;-71
2021/04/19 10:28:10;;;;;;;48.47;31.60;;;;;;;13.18;52.04;99934.72;4972683;28;20038;-71
2021/04/19 10:30:36;;;;;;;43.88;31.60;;;;;;;13.49;50.15;99933.81;4973043;28;20034;-72
2021/04/19 10:33:01;;;;;;;48.78;32.58;;;;;;;13.65;49.72;99934.59;4973968;28;20030;-71
2021/04/19 10:35:42;;;;;;;42.72;33.75;;;;;;;13.80;50.01;99938.13;4965345;28;20046;-73
2021/04/19 10:38:07;;;;;;;38.28;29.23;;;;;;;14.12;48.87;99928.22;4953813;28;20542;-71
2021/04/19 10:40:33;;;;;;;41.65;31.27;;;;;;;14.16;48.54;99928.88;4954144;28;20059;-71
2021/04/19 10:43:11;;;;;;;48.20;30.73;;;;;;;14.13;47.99;99929.09;4954600;28;20117;-71
2021/04/19 10:45:37;;;;;;;44.85;32.20;;;;;;;14.04;48.59;99927.84;4953426;28;20420;-70
2021/04/19 10:48:16;;;;;;;44.13;31.20;;;;;;;14.00;48.44;99925.47;4954128;28;20035;-70
2021/04/19 10:50:41;;;;;;;44.00;31.08;;;;;;;14.31;48.22;99921.78;4953689;28;20441;-70
2021/04/19 10:53:06;;;;;;;43.75;32.50;;;;;;;14.09;48.16;99914.31;4953934;28;20035;-70
2021/04/19 10:55:32;;;;;;;48.80;30.90;;;;;;;13.91;48.74;99914.50;4953747;28;20035;-69
2021/04/19 10:57:57;;;;;;;45.53;34.22;;;;;;;13.90;49.07;99912.75;4954284;28;20554;-71
2021/04/19 11:00:23;;;;;;;47.30;34.38;;;;;;;13.98;48.95;99914.97;4954208;28;20495;-70
2021/04/19 11:02:52;;;;;;;46.55;32.72;;;;;;;13.81;49.03;99908.06;4956146;28;20027;-70
2021/04/19 11:05:18;;;;;;;40.92;29.38;;;;;;;13.79;48.76;99915.22;4954527;28;20082;-71
2021/04/19 11:07:44;;;;;;;43.30;30.40;;;;;;;13.57;50.01;99912.16;4955039;28;20039;-71
2021/04/19 11:10:22;;;;;;;38.97;28.80;;;;;;;13.54;50.09;99913.22;4955566;28;20050;-71
2021/04/19 11:13:00;;;;;;;73.35;34.35;;;;;;;13.35;51.25;99907.28;4958515;28;20491;-71
2021/04/19 11:15:41;;;;;;;39.28;28.27;;;;;;;13.22;50.55;99913.28;4959159;28;20055;-71
2021/04/19 11:18:20;;;;;;;45.47;32.90;;;;;;;13.17;51.04;99907.41;4956536;28;20039;-71
2021/04/19 11:20:48;;;;;;;49.30;33.17;;;;;;;13.03;51.73;99905.53;4955214;28;20565;-71
2021/04/19 11:23:22;;;;;;;52.63;36.47;;;;;;;13.13;52.23;99903.22;4954120;28;20043;-71
2021/04/19 11:25:48;;;;;;;47.45;35.30;;;;;;;13.18;52.16;99902.94;4953584;28;20063;-71
2021/04/19 11:28:39;;;;;;;60.72;38.22;;;;;;;13.08;52.75;99906.13;4953355;28;20615;-71
2021/04/19 11:31:41;;;;;;;62.72;38.35;;;;;;;12.92;52.72;99913.25;4953705;28;20094;-71
2021/04/19 11:34:07;;;;;;;62.85;36.95;;;;;;;12.93;53.02;99914.09;4932999;28;20054;-71